sensor_id;sensor_type;location;lat;lon;timestamp;pressure;altitude;pressure_sealevel;temperature;humidity
32789;BME280;19141;48.980;8.410;2023-02-28T05:22:33;101082.91;;;-1.30;82.01
32789;BME280;19141;48.980;8.410;2023-02-28T05:24:58;101076.06;;;-1.32;82.00
32789;BME280;19141;48.980;8.410;2023-02-28T05:27:23;101075.91;;;-1.29;81.59
32789;BME280;19141;48.980;8.410;2023-02-28T05:29:50;101074.22;;;-1.30;82.53
32789;BME280;19141;48.980;8.410;2023-02-28T05:32:15;101068.00;;;-1.28;81.95
32789;BME280;19141;48.980;8.410;2023-02-28T05:34:41;101076.06;;;-1.32;82.51
32789;BME280;19141;48.980;8.410;2023-02-28T05:37:12;101077.59;;;-1.28;81.71
32789;BME280;19141;48.980;8.410;2023-02-28T05:39:38;101077.59;;;-1.28;81.74
32789;BME280;19141;48.980;8.410;2023-02-28T05:42:04;101079.22;;;-1.26;82.28
32789;BME280;19141;48.980;8.410;2023-02-28T05:44:29;101077.53;;;-1.27;81.93
32789;BME280;19141;48.980;8.410;2023-02-28T05:46:55;101080.91;;;-1.25;81.59
32789;BME280;19141;48.980;8.410;2023-02-28T05:49:20;101085.53;;;-1.30;82.25
32789;BME280;19141;48.980;8.410;2023-02-28T05:51:46;101078.53;;;-1.29;81.67
32789;BME280;19141;48.980;8.410;2023-02-28T05:54:11;101078.66;;;-1.32;82.45
32789;BME280;19141;48.980;8.410;2023-02-28T05:56:37;101080.22;;;-1.28;82.63
32789;BME280;19141;48.980;8.410;2023-02-28T05:59:05;101080.00;;;-1.24;82.14
32789;BME280;19141;48.980;8.410;2023-02-28T06:01:34;101086.06;;;-1.23;82.23
32789;BME280;19141;48.980;8.410;2023-02-28T06:04:01;101076.47;;;-1.23;82.62
32789;BME280;19141;48.980;8.410;2023-02-28T06:06:27;101076.06;;;-1.15;82.03
32789;BME280;19141;48.980;8.410;2023-02-28T06:08:52;101077.84;;;-1.16;81.65
32789;BME280;19141;48.980;8.410;2023-02-28T06:11:18;101076.81;;;-1.13;81.53
32789;BME280;19141;48.980;8.410;2023-02-28T06:13:45;101083.72;;;-1.12;81.40
32789;BME280;19141;48.980;8.410;2023-02-28T06:16:11;101074.97;;;-1.11;81.33
32789;BME280;19141;48.980;8.410;2023-02-28T06:18:37;101086.28;;;-1.11;81.68
32789;BME280;19141;48.980;8.410;2023-02-28T06:21:03;101086.22;;;-1.09;82.05
32789;BME280;19141;48.980;8.410;2023-02-28T06:23:28;101089.66;;;-1.08;82.08
32789;BME280;19141;48.980;8.410;2023-02-28T06:25:54;101090.97;;;-1.00;81.75
32789;BME280;19141;48.980;8.410;2023-02-28T06:28:24;101090.13;;;-1.00;81.85
32789;BME280;19141;48.980;8.410;2023-02-28T06:30:49;101095.34;;;-1.00;81.94
32789;BME280;19141;48.980;8.410;2023-02-28T06:33:14;101098.97;;;-1.03;82.32
32789;BME280;19141;48.980;8.410;2023-02-28T06:35:44;101091.75;;;-0.98;80.94
32789;BME280;19141;48.980;8.410;2023-02-28T06:38:09;101094.09;;;-0.93;81.62
32789;BME280;19141;48.980;8.410;2023-02-28T06:40:36;101093.44;;;-0.97;81.94
32789;BME280;19141;48.980;8.410;2023-02-28T06:43:02;101096.63;;;-0.92;81.44
32789;BME280;19141;48.980;8.410;2023-02-28T06:45:28;101097.56;;;-0.93;81.46
32789;BME280;19141;48.980;8.410;2023-02-28T06:47:53;101103.41;;;-0.88;80.64
32789;BME280;19141;48.980;8.410;2023-02-28T06:50:18;101101.81;;;-0.90;80.95
32789;BME280;19141;48.980;8.410;2023-02-28T06:52:45;101111.88;;;-0.83;80.97
32789;BME280;19141;48.980;8.410;2023-02-28T06:55:11;101113.91;;;-0.72;80.44
32789;BME280;19141;48.980;8.410;2023-02-28T06:57:37;101122.69;;;-0.73;79.08
32789;BME280;19141;48.980;8.410;2023-02-28T07:00:05;101125.00;;;-0.67;79.08
32789;BME280;19141;48.980;8.410;2023-02-28T07:02:33;101125.00;;;-0.67;79.55
32789;BME280;19141;48.980;8.410;2023-02-28T07:04:58;101118.06;;;-0.68;78.56
32789;BME280;19141;48.980;8.410;2023-02-28T07:07:24;101100.91;;;-0.73;79.08
32789;BME280;19141;48.980;8.410;2023-02-28T07:09:49;101129.28;;;-0.66;78.85
32789;BME280;19141;48.980;8.410;2023-02-28T07:12:15;101128.44;;;-0.66;78.95
32789;BME280;19141;48.980;8.410;2023-02-28T07:14:40;101120.03;;;-0.56;79.09
32789;BME280;19141;48.980;8.410;2023-02-28T07:17:09;101131.44;;;-0.57;78.83
32789;BME280;19141;48.980;8.410;2023-02-28T07:19:37;101133.56;;;-0.47;78.64
32789;BME280;19141;48.980;8.410;2023-02-28T07:22:03;101137.63;;;-0.42;78.83
32789;BME280;19141;48.980;8.410;2023-02-28T07:24:28;101142.41;;;-0.33;77.42
32789;BME280;19141;48.980;8.410;2023-02-28T07:26:54;101126.69;;;-0.33;77.44
32789;BME280;19141;48.980;8.410;2023-02-28T07:29:20;101132.81;;;-0.34;77.13
32789;BME280;19141;48.980;8.410;2023-02-28T07:31:45;101134.94;;;-0.40;77.25
32789;BME280;19141;48.980;8.410;2023-02-28T07:34:12;101139.19;;;-0.38;77.72
32789;BME280;19141;48.980;8.410;2023-02-28T07:36:38;101138.25;;;-0.37;76.71
32789;BME280;19141;48.980;8.410;2023-02-28T07:39:03;101132.25;;;-0.39;76.87
32789;BME280;19141;48.980;8.410;2023-02-28T07:41:30;101133.00;;;-0.37;77.01
32789;BME280;19141;48.980;8.410;2023-02-28T07:43:58;101128.63;;;-0.36;76.83
32789;BME280;19141;48.980;8.410;2023-02-28T07:46:25;101133.16;;;-0.40;77.38
32789;BME280;19141;48.980;8.410;2023-02-28T07:48:51;101141.28;;;-0.29;76.52
32789;BME280;19141;48.980;8.410;2023-02-28T07:51:18;101138.66;;;-0.29;75.90
32789;BME280;19141;48.980;8.410;2023-02-28T07:53:43;101145.53;;;-0.26;75.78
32789;BME280;19141;48.980;8.410;2023-02-28T07:56:09;101137.75;;;-0.28;76.14
32789;BME280;19141;48.980;8.410;2023-02-28T07:58:36;101132.78;;;-0.32;76.46
32789;BME280;19141;48.980;8.410;2023-02-28T08:01:07;101140.44;;;-0.29;75.42
32789;BME280;19141;48.980;8.410;2023-02-28T08:03:32;101135.38;;;-0.32;76.07
32789;BME280;19141;48.980;8.410;2023-02-28T08:05:58;101139.19;;;-0.22;76.03
32789;BME280;19141;48.980;8.410;2023-02-28T08:08:23;101145.88;;;-0.16;75.24
32789;BME280;19141;48.980;8.410;2023-02-28T08:10:48;101136.41;;;-0.19;75.14
32789;BME280;19141;48.980;8.410;2023-02-28T08:13:14;101144.47;;;-0.06;74.84
32789;BME280;19141;48.980;8.410;2023-02-28T08:15:41;101141.75;;;-0.05;75.28
32789;BME280;19141;48.980;8.410;2023-02-28T08:18:08;101135.41;;;-0.16;74.55
32789;BME280;19141;48.980;8.410;2023-02-28T08:20:33;101154.50;;;0.02;74.16
32789;BME280;19141;48.980;8.410;2023-02-28T08:22:58;101155.19;;;0.05;73.83
32789;BME280;19141;48.980;8.410;2023-02-28T08:25:27;101146.75;;;0.00;73.48
32789;BME280;19141;48.980;8.410;2023-02-28T08:27:52;101152.41;;;0.08;73.83
32789;BME280;19141;48.980;8.410;2023-02-28T08:30:18;101145.91;;;0.15;73.51
32789;BME280;19141;48.980;8.410;2023-02-28T08:32:44;101146.97;;;0.11;73.27
32789;BME280;19141;48.980;8.410;2023-02-28T08:35:09;101153.06;;;0.28;72.63
32789;BME280;19141;48.980;8.410;2023-02-28T08:37:35;101153.81;;;0.30;72.39
32789;BME280;19141;48.980;8.410;2023-02-28T08:40:01;101162.72;;;0.27;72.95
32789;BME280;19141;48.980;8.410;2023-02-28T08:42:26;101161.25;;;0.37;71.70
32789;BME280;19141;48.980;8.410;2023-02-28T08:44:52;101158.47;;;0.24;72.26
32789;BME280;19141;48.980;8.410;2023-02-28T08:47:17;101175.22;;;0.38;71.82
32789;BME280;19141;48.980;8.410;2023-02-28T08:49:43;101164.66;;;0.39;71.24
32789;BME280;19141;48.980;8.410;2023-02-28T08:52:08;101172.34;;;0.42;72.14
32789;BME280;19141;48.980;8.410;2023-02-28T08:54:35;101160.41;;;0.37;71.63
32789;BME280;19141;48.980;8.410;2023-02-28T08:57:00;101164.22;;;0.47;70.86
32789;BME280;19141;48.980;8.410;2023-02-28T08:59:26;101168.09;;;0.56;71.03
32789;BME280;19141;48.980;8.410;2023-02-28T09:01:51;101161.47;;;0.64;71.04
32789;BME280;19141;48.980;8.410;2023-02-28T09:04:17;101142.38;;;0.62;70.89
32789;BME280;19141;48.980;8.410;2023-02-28T09:06:42;101157.41;;;0.59;70.57
32789;BME280;19141;48.980;8.410;2023-02-28T09:09:09;101159.34;;;0.71;69.45
32789;BME280;19141;48.980;8.410;2023-02-28T09:11:35;101164.38;;;0.60;70.24
32789;BME280;19141;48.980;8.410;2023-02-28T09:14:01;101158.38;;;0.88;69.75
32789;BME280;19141;48.980;8.410;2023-02-28T09:16:29;101155.63;;;1.05;68.69
32789;BME280;19141;48.980;8.410;2023-02-28T09:18:54;101154.13;;;1.15;67.78
32789;BME280;19141;48.980;8.410;2023-02-28T09:21:20;101161.00;;;1.18;67.13
32789;BME280;19141;48.980;8.410;2023-02-28T09:23:47;101157.16;;;1.23;66.97
32789;BME280;19141;48.980;8.410;2023-02-28T09:26:24;101160.34;;;1.28;66.88
32789;BME280;19141;48.980;8.410;2023-02-28T09:28:51;101162.94;;;1.14;67.59
32789;BME280;19141;48.980;8.410;2023-02-28T09:31:19;101159.69;;;1.25;67.24
32789;BME280;19141;48.980;8.410;2023-02-28T09:33:52;101152.25;;;1.17;68.06
32789;BME280;19141;48.980;8.410;2023-02-28T09:36:19;101158.56;;;1.43;67.28
32789;BME280;19141;48.980;8.410;2023-02-28T09:38:44;101159.25;;;1.61;65.67
32789;BME280;19141;48.980;8.410;2023-02-28T09:41:17;101148.66;;;1.62;65.83
32789;BME280;19141;48.980;8.410;2023-02-28T09:43:50;101146.09;;;1.75;64.45
32789;BME280;19141;48.980;8.410;2023-02-28T09:46:26;101145.06;;;1.92;63.85
32789;BME280;19141;48.980;8.410;2023-02-28T09:48:54;101146.44;;;2.12;62.45
32789;BME280;19141;48.980;8.410;2023-02-28T09:54:23;101155.78;;;2.30;60.29
32789;BME280;19141;48.980;8.410;2023-02-28T09:56:53;101162.84;;;2.57;60.22
32789;BME280;19141;48.980;8.410;2023-02-28T10:02:27;101151.50;;;2.56;59.31
32789;BME280;19141;48.980;8.410;2023-02-28T10:05:17;101150.81;;;2.80;58.62
32789;BME280;19141;48.980;8.410;2023-02-28T10:15:58;101169.50;;;3.02;57.32
32789;BME280;19141;48.980;8.410;2023-02-28T10:18:27;101168.97;;;2.97;56.68
32789;BME280;19141;48.980;8.410;2023-02-28T10:20:56;101162.13;;;2.94;57.11
32789;BME280;19141;48.980;8.410;2023-02-28T10:23:27;101167.69;;;2.90;57.05
32789;BME280;19141;48.980;8.410;2023-02-28T10:26:08;101168.75;;;2.87;57.03
32789;BME280;19141;48.980;8.410;2023-02-28T10:28:36;101156.47;;;2.61;57.93
32789;BME280;19141;48.980;8.410;2023-02-28T10:31:01;101167.22;;;2.70;58.08
32789;BME280;19141;48.980;8.410;2023-02-28T10:33:33;101170.91;;;2.68;58.62
32789;BME280;19141;48.980;8.410;2023-02-28T10:36:00;101172.25;;;2.61;58.75
32789;BME280;19141;48.980;8.410;2023-02-28T10:38:35;101178.22;;;2.36;58.94
32789;BME280;19141;48.980;8.410;2023-02-28T10:41:13;101166.88;;;2.21;60.18
32789;BME280;19141;48.980;8.410;2023-02-28T10:43:41;101173.09;;;2.20;59.85
32789;BME280;19141;48.980;8.410;2023-02-28T10:46:11;101166.59;;;2.26;59.11
32789;BME280;19141;48.980;8.410;2023-02-28T10:51:24;101167.72;;;2.22;60.51
32789;BME280;19141;48.980;8.410;2023-02-28T10:53:51;101170.34;;;2.22;60.92
32789;BME280;19141;48.980;8.410;2023-02-28T10:56:20;101168.22;;;2.28;60.58
32789;BME280;19141;48.980;8.410;2023-02-28T11:01:41;101165.97;;;2.22;60.10
32789;BME280;19141;48.980;8.410;2023-02-28T11:06:44;101169.56;;;2.34;59.96
32789;BME280;19141;48.980;8.410;2023-02-28T11:09:28;101170.69;;;2.44;59.94
32789;BME280;19141;48.980;8.410;2023-02-28T11:11:55;101162.91;;;2.42;60.32
32789;BME280;19141;48.980;8.410;2023-02-28T11:14:24;101157.78;;;2.54;59.63
32789;BME280;19141;48.980;8.410;2023-02-28T11:16:51;101167.56;;;2.52;59.80
32789;BME280;19141;48.980;8.410;2023-02-28T11:19:29;101148.00;;;2.56;58.92
32789;BME280;19141;48.980;8.410;2023-02-28T11:21:58;101148.09;;;2.54;59.76
32789;BME280;19141;48.980;8.410;2023-02-28T11:24:27;101154.06;;;2.70;59.19
32789;BME280;19141;48.980;8.410;2023-02-28T11:26:54;101137.81;;;2.64;58.59
32789;BME280;19141;48.980;8.410;2023-02-28T11:29:28;101146.91;;;2.72;58.73
32789;BME280;19141;48.980;8.410;2023-02-28T11:32:18;101146.91;;;2.72;58.40
32789;BME280;19141;48.980;8.410;2023-02-28T11:34:45;101139.88;;;2.86;58.14
32789;BME280;19141;48.980;8.410;2023-02-28T11:37:15;101137.78;;;2.91;57.98
32789;BME280;19141;48.980;8.410;2023-02-28T11:39:42;101138.03;;;3.01;58.47
32789;BME280;19141;48.980;8.410;2023-02-28T11:48:01;101138.06;;;3.26;55.86
32789;BME280;19141;48.980;8.410;2023-02-28T11:53:22;101137.00;;;3.41;54.36
32789;BME280;19141;48.980;8.410;2023-02-28T11:56:12;101131.09;;;3.50;54.88
32789;BME280;19141;48.980;8.410;2023-02-28T12:04:12;101131.50;;;3.57;53.97
32789;BME280;19141;48.980;8.410;2023-02-28T12:06:59;101139.03;;;4.00;53.51
32789;BME280;19141;48.980;8.410;2023-02-28T12:09:55;101124.25;;;4.58;52.04
32789;BME280;19141;48.980;8.410;2023-02-28T12:12:41;101127.03;;;4.68;50.84
32789;BME280;19141;48.980;8.410;2023-02-28T12:15:32;101134.31;;;4.88;50.58
32789;BME280;19141;48.980;8.410;2023-02-28T12:18:37;101131.91;;;4.85;49.76
32789;BME280;19141;48.980;8.410;2023-02-28T12:26:53;101122.03;;;4.76;50.60
32789;BME280;19141;48.980;8.410;2023-02-28T12:29:26;101124.97;;;4.84;50.26
32789;BME280;19141;48.980;8.410;2023-02-28T12:32:04;101119.81;;;4.94;50.05
32789;BME280;19141;48.980;8.410;2023-02-28T12:34:39;101114.66;;;4.92;50.18
32789;BME280;19141;48.980;8.410;2023-02-28T12:37:10;101122.59;;;4.92;50.10
32789;BME280;19141;48.980;8.410;2023-02-28T12:39:49;101111.84;;;5.17;49.49
32789;BME280;19141;48.980;8.410;2023-02-28T12:42:25;101105.16;;;5.92;47.75
32789;BME280;19141;48.980;8.410;2023-02-28T12:44:58;101106.63;;;6.92;45.83
32789;BME280;19141;48.980;8.410;2023-02-28T12:47:24;101093.56;;;7.21;44.42
32789;BME280;19141;48.980;8.410;2023-02-28T12:49:52;101100.16;;;7.57;44.06
32789;BME280;19141;48.980;8.410;2023-02-28T12:53:09;101088.38;;;8.40;43.48
32789;BME280;19141;48.980;8.410;2023-02-28T12:55:17;101078.06;;;8.57;41.09
32789;BME280;19141;48.980;8.410;2023-02-28T13:00:21;101084.34;;;8.36;41.38
32789;BME280;19141;48.980;8.410;2023-02-28T13:06:05;101087.81;;;7.16;43.63
32789;BME280;19141;48.980;8.410;2023-02-28T13:11:53;101075.16;;;8.00;42.38
32789;BME280;19141;48.980;8.410;2023-02-28T13:14:29;101087.38;;;8.22;41.99
32789;BME280;19141;48.980;8.410;2023-02-28T13:19:34;101066.06;;;9.56;39.09
32789;BME280;19141;48.980;8.410;2023-02-28T13:22:01;101066.22;;;9.82;39.31
32789;BME280;19141;48.980;8.410;2023-02-28T13:29:32;101070.91;;;8.77;40.52
32789;BME280;19141;48.980;8.410;2023-02-28T13:32:27;101070.16;;;8.26;41.10
32789;BME280;19141;48.980;8.410;2023-02-28T13:39:52;101078.28;;;7.34;43.20
32789;BME280;19141;48.980;8.410;2023-02-28T13:47:42;101068.97;;;6.68;44.78
32789;BME280;19141;48.980;8.410;2023-02-28T13:50:38;101074.28;;;6.57;45.10
32789;BME280;19141;48.980;8.410;2023-02-28T13:55:47;101081.88;;;6.61;45.22
32789;BME280;19141;48.980;8.410;2023-02-28T14:06:37;101077.13;;;6.44;46.79
32789;BME280;19141;48.980;8.410;2023-02-28T14:09:29;101085.50;;;6.17;46.75
32789;BME280;19141;48.980;8.410;2023-02-28T14:11:57;101078.63;;;6.25;47.03
32789;BME280;19141;48.980;8.410;2023-02-28T14:17:03;101070.91;;;6.34;46.71
32789;BME280;19141;48.980;8.410;2023-02-28T14:19:31;101084.66;;;6.16;47.15
32789;BME280;19141;48.980;8.410;2023-02-28T14:22:21;101079.06;;;5.65;48.33
32789;BME280;19141;48.980;8.410;2023-02-28T14:25:08;101079.19;;;5.63;48.19
32789;BME280;19141;48.980;8.410;2023-02-28T14:33:22;101068.13;;;5.25;49.43
32789;BME280;19141;48.980;8.410;2023-02-28T14:38:24;101070.06;;;5.56;49.40
32789;BME280;19141;48.980;8.410;2023-02-28T14:40:52;101065.50;;;5.47;48.72
32789;BME280;19141;48.980;8.410;2023-02-28T14:43:25;101082.69;;;5.64;48.66
32789;BME280;19141;48.980;8.410;2023-02-28T14:45:54;101076.56;;;5.75;48.58
32789;BME280;19141;48.980;8.410;2023-02-28T14:48:21;101075.59;;;5.64;49.16
32789;BME280;19141;48.980;8.410;2023-02-28T14:50:58;101061.44;;;5.54;49.06
32789;BME280;19141;48.980;8.410;2023-02-28T14:53:28;101071.13;;;5.76;48.76
32789;BME280;19141;48.980;8.410;2023-02-28T14:55:54;101064.75;;;5.79;48.59
32789;BME280;19141;48.980;8.410;2023-02-28T14:58:29;101060.56;;;5.76;48.65
32789;BME280;19141;48.980;8.410;2023-02-28T15:00:57;101065.50;;;5.69;48.90
32789;BME280;19141;48.980;8.410;2023-02-28T15:05:59;101069.09;;;5.46;49.37
32789;BME280;19141;48.980;8.410;2023-02-28T15:08:26;101070.06;;;5.56;49.27
32789;BME280;19141;48.980;8.410;2023-02-28T15:11:16;101067.41;;;5.34;49.76
32789;BME280;19141;48.980;8.410;2023-02-28T15:13:49;101065.59;;;5.34;49.37
32789;BME280;19141;48.980;8.410;2023-02-28T15:21:37;101069.59;;;5.29;49.85
32789;BME280;19141;48.980;8.410;2023-02-28T15:24:19;101065.72;;;5.33;49.64
32789;BME280;19141;48.980;8.410;2023-02-28T15:26:57;101063.31;;;5.18;49.88
32789;BME280;19141;48.980;8.410;2023-02-28T15:29:27;101059.38;;;5.24;49.73
32789;BME280;19141;48.980;8.410;2023-02-28T15:32:00;101059.75;;;5.31;50.03
32789;BME280;19141;48.980;8.410;2023-02-28T15:34:40;101057.66;;;5.01;50.47
32789;BME280;19141;48.980;8.410;2023-02-28T15:37:41;101069.78;;;5.14;49.70
32789;BME280;19141;48.980;8.410;2023-02-28T15:42:35;101064.75;;;5.11;50.38
32789;BME280;19141;48.980;8.410;2023-02-28T15:45:01;101057.81;;;5.22;50.22
32789;BME280;19141;48.980;8.410;2023-02-28T15:47:28;101066.22;;;5.15;49.96
32789;BME280;19141;48.980;8.410;2023-02-28T15:49:57;101068.59;;;5.07;50.47
32789;BME280;19141;48.980;8.410;2023-02-28T15:55:18;101063.31;;;5.07;50.38
32789;BME280;19141;48.980;8.410;2023-02-28T15:57:45;101069.34;;;5.09;50.23
32789;BME280;19141;48.980;8.410;2023-02-28T16:00:18;101034.84;;;4.77;50.68
32789;BME280;19141;48.980;8.410;2023-02-28T16:02:44;101069.78;;;4.92;51.22
32789;BME280;19141;48.980;8.410;2023-02-28T16:07:39;101065.22;;;4.94;51.41
32789;BME280;19141;48.980;8.410;2023-02-28T16:10:08;101066.41;;;4.90;51.40
32789;BME280;19141;48.980;8.410;2023-02-28T16:12:36;101067.84;;;4.94;51.57
32789;BME280;19141;48.980;8.410;2023-02-28T16:17:44;101062.91;;;4.78;50.85
32789;BME280;19141;48.980;8.410;2023-02-28T16:22:38;101074.81;;;4.84;51.52
32789;BME280;19141;48.980;8.410;2023-02-28T16:25:04;101076.09;;;4.78;51.32
32789;BME280;19141;48.980;8.410;2023-02-28T16:27:36;101077.91;;;4.78;51.85
32789;BME280;19141;48.980;8.410;2023-02-28T16:30:04;101083.63;;;4.72;52.15
32789;BME280;19141;48.980;8.410;2023-02-28T16:32:30;101076.91;;;4.68;51.28
32789;BME280;19141;48.980;8.410;2023-02-28T16:34:56;101079.28;;;4.59;51.95
32789;BME280;19141;48.980;8.410;2023-02-28T16:37:22;101083.00;;;4.57;52.22
32789;BME280;19141;48.980;8.410;2023-02-28T16:39:47;101090.03;;;4.45;52.07
32789;BME280;19141;48.980;8.410;2023-02-28T16:42:23;101083.41;;;4.40;52.28
32789;BME280;19141;48.980;8.410;2023-02-28T16:44:50;101096.47;;;4.41;52.31
32789;BME280;19141;48.980;8.410;2023-02-28T16:47:16;101091.19;;;4.41;52.39
32789;BME280;19141;48.980;8.410;2023-02-28T16:49:42;101090.69;;;4.36;52.06
32789;BME280;19141;48.980;8.410;2023-02-28T16:52:09;101095.22;;;4.34;52.84
32789;BME280;19141;48.980;8.410;2023-02-28T16:54:35;101097.38;;;4.29;53.10
32789;BME280;19141;48.980;8.410;2023-02-28T16:57:01;101102.16;;;4.24;52.76
32789;BME280;19141;48.980;8.410;2023-02-28T16:59:27;101108.59;;;4.20;53.34
32789;BME280;19141;48.980;8.410;2023-02-28T17:01:54;101107.06;;;4.04;53.22
32789;BME280;19141;48.980;8.410;2023-02-28T17:04:21;101106.97;;;4.06;53.10
32789;BME280;19141;48.980;8.410;2023-02-28T17:06:47;101122.13;;;4.02;53.82
32789;BME280;19141;48.980;8.410;2023-02-28T17:09:18;101118.91;;;3.99;53.59
32789;BME280;19141;48.980;8.410;2023-02-28T17:11:45;101121.34;;;3.89;54.36
32789;BME280;19141;48.980;8.410;2023-02-28T17:14:10;101115.53;;;3.84;54.21
32789;BME280;19141;48.980;8.410;2023-02-28T17:16:37;101120.09;;;3.69;54.97
32789;BME280;19141;48.980;8.410;2023-02-28T17:19:11;101123.47;;;3.71;54.92
32789;BME280;19141;48.980;8.410;2023-02-28T17:21:37;101131.47;;;3.70;54.94
32789;BME280;19141;48.980;8.410;2023-02-28T17:24:03;101129.28;;;3.64;55.22
32789;BME280;19141;48.980;8.410;2023-02-28T17:26:29;101126.56;;;3.52;55.08
32789;BME280;19141;48.980;8.410;2023-02-28T17:28:56;101129.69;;;3.58;55.74
32789;BME280;19141;48.980;8.410;2023-02-28T17:31:26;101132.25;;;3.46;56.09
32789;BME280;19141;48.980;8.410;2023-02-28T17:33:53;101140.78;;;3.50;55.94
32789;BME280;19141;48.980;8.410;2023-02-28T17:36:24;101134.13;;;3.44;55.70
32789;BME280;19141;48.980;8.410;2023-02-28T17:38:52;101133.94;;;3.35;56.16
32789;BME280;19141;48.980;8.410;2023-02-28T17:41:18;101142.88;;;3.32;56.40
32789;BME280;19141;48.980;8.410;2023-02-28T17:43:44;101144.59;;;3.20;56.61
32789;BME280;19141;48.980;8.410;2023-02-28T17:46:20;101154.78;;;3.25;56.65
32789;BME280;19141;48.980;8.410;2023-02-28T17:48:51;101144.03;;;3.15;56.94
32789;BME280;19141;48.980;8.410;2023-02-28T17:51:18;101159.00;;;3.15;56.73
32789;BME280;19141;48.980;8.410;2023-02-28T17:53:44;101156.38;;;3.15;57.00
32789;BME280;19141;48.980;8.410;2023-02-28T17:56:15;101148.78;;;3.10;57.28
32789;BME280;19141;48.980;8.410;2023-02-28T17:58:41;101163.94;;;3.19;56.93
32789;BME280;19141;48.980;8.410;2023-02-28T18:01:07;101152.66;;;3.05;57.50
32789;BME280;19141;48.980;8.410;2023-02-28T18:03:33;101154.25;;;3.07;57.25
32789;BME280;19141;48.980;8.410;2023-02-28T18:05:59;101152.09;;;2.99;57.86
32789;BME280;19141;48.980;8.410;2023-02-28T18:08:24;101164.34;;;3.01;57.92
32789;BME280;19141;48.980;8.410;2023-02-28T18:10:51;101152.72;;;2.90;58.05
32789;BME280;19141;48.980;8.410;2023-02-28T18:13:16;101154.81;;;2.85;57.96
32789;BME280;19141;48.980;8.410;2023-02-28T18:15:42;101152.94;;;2.87;58.13
32789;BME280;19141;48.980;8.410;2023-02-28T18:18:07;101157.44;;;2.85;57.88
32789;BME280;19141;48.980;8.410;2023-02-28T18:20:34;101150.81;;;2.80;58.31
32789;BME280;19141;48.980;8.410;2023-02-28T18:23:00;101157.34;;;2.74;58.77
32789;BME280;19141;48.980;8.410;2023-02-28T18:25:25;101161.44;;;2.78;58.55
32789;BME280;19141;48.980;8.410;2023-02-28T18:27:51;101151.81;;;2.64;58.69
32789;BME280;19141;48.980;8.410;2023-02-28T18:30:29;101149.09;;;2.66;59.45
32789;BME280;19141;48.980;8.410;2023-02-28T18:33:00;101154.13;;;2.56;60.21
32789;BME280;19141;48.980;8.410;2023-02-28T18:35:26;101160.41;;;2.54;60.20
32789;BME280;19141;48.980;8.410;2023-02-28T18:40:26;101152.91;;;2.48;59.91
32789;BME280;19141;48.980;8.410;2023-02-28T18:42:52;101168.28;;;2.54;59.57
32789;BME280;19141;48.980;8.410;2023-02-28T18:45:17;101165.13;;;2.49;59.86
32789;BME280;19141;48.980;8.410;2023-02-28T18:47:43;101149.19;;;2.37;60.81
32789;BME280;19141;48.980;8.410;2023-02-28T18:50:09;101149.50;;;2.33;60.57
32789;BME280;19141;48.980;8.410;2023-02-28T18:52:34;101155.06;;;2.28;61.41
32789;BME280;19141;48.980;8.410;2023-02-28T18:55:00;101159.81;;;2.36;60.77
32789;BME280;19141;48.980;8.410;2023-02-28T18:57:25;101156.53;;;2.32;60.62
32789;BME280;19141;48.980;8.410;2023-02-28T18:59:50;101156.75;;;2.29;60.87
32789;BME280;19141;48.980;8.410;2023-02-28T19:02:16;101154.28;;;2.26;60.70
32789;BME280;19141;48.980;8.410;2023-02-28T19:04:41;101158.06;;;2.22;61.15
32789;BME280;19141;48.980;8.410;2023-02-28T19:07:07;101161.00;;;2.17;61.16
32789;BME280;19141;48.980;8.410;2023-02-28T19:09:32;101116.84;;;1.81;61.78
32789;BME280;19141;48.980;8.410;2023-02-28T19:11:58;101136.91;;;1.97;62.09
32789;BME280;19141;48.980;8.410;2023-02-28T19:14:23;101167.47;;;2.12;61.71
32789;BME280;19141;48.980;8.410;2023-02-28T19:16:49;101167.47;;;2.12;61.48
32789;BME280;19141;48.980;8.410;2023-02-28T19:19:14;101176.88;;;2.16;61.66
32789;BME280;19141;48.980;8.410;2023-02-28T19:21:40;101175.25;;;2.13;61.31
32789;BME280;19141;48.980;8.410;2023-02-28T19:24:05;101177.25;;;2.10;61.80
32789;BME280;19141;48.980;8.410;2023-02-28T19:26:31;101174.06;;;2.05;61.64
32789;BME280;19141;48.980;8.410;2023-02-28T19:28:56;101166.91;;;2.07;61.23
32789;BME280;19141;48.980;8.410;2023-02-28T19:31:24;101176.31;;;1.97;62.41
32789;BME280;19141;48.980;8.410;2023-02-28T19:33:50;101172.66;;;1.99;62.41
32789;BME280;19141;48.980;8.410;2023-02-28T19:36:17;101177.28;;;1.96;62.38
32789;BME280;19141;48.980;8.410;2023-02-28T19:38:43;101172.28;;;1.91;62.41
32789;BME280;19141;48.980;8.410;2023-02-28T19:41:11;101171.63;;;1.87;62.60
32789;BME280;19141;48.980;8.410;2023-02-28T19:43:37;101164.69;;;1.86;62.23
32789;BME280;19141;48.980;8.410;2023-02-28T19:46:03;101173.88;;;1.94;62.46
32789;BME280;19141;48.980;8.410;2023-02-28T19:48:29;101164.69;;;1.86;62.82
32789;BME280;19141;48.980;8.410;2023-02-28T19:51:02;101174.72;;;1.80;63.31
32789;BME280;19141;48.980;8.410;2023-02-28T19:53:32;101160.97;;;1.76;62.84
32789;BME280;19141;48.980;8.410;2023-02-28T19:55:59;101162.72;;;1.76;63.06
32789;BME280;19141;48.980;8.410;2023-02-28T19:58:25;101164.69;;;1.72;63.51
32789;BME280;19141;48.980;8.410;2023-02-28T20:00:52;101168.38;;;1.70;63.87
32789;BME280;19141;48.980;8.410;2023-02-28T20:03:17;101159.09;;;1.64;63.69
32789;BME280;19141;48.980;8.410;2023-02-28T20:05:44;101166.75;;;1.67;63.64
32789;BME280;19141;48.980;8.410;2023-02-28T20:08:10;101168.66;;;1.65;63.90
32789;BME280;19141;48.980;8.410;2023-02-28T20:10:36;101168.16;;;1.58;64.29
32789;BME280;19141;48.980;8.410;2023-02-28T20:13:01;101166.75;;;1.53;64.94
32789;BME280;19141;48.980;8.410;2023-02-28T20:15:27;101175.28;;;1.56;64.55
32789;BME280;19141;48.980;8.410;2023-02-28T20:17:53;101163.75;;;1.45;64.88
32789;BME280;19141;48.980;8.410;2023-02-28T20:20:22;101172.47;;;1.45;65.55
32789;BME280;19141;48.980;8.410;2023-02-28T20:22:48;101170.31;;;1.38;65.80